createdAt,value
2022-10-19T00:01:30.508Z,84.48
2022-10-19T00:04:08.775Z,84.55
2022-10-19T00:06:45.953Z,84.64
2022-10-19T00:09:23.185Z,84.68
2022-10-19T00:11:58.939Z,84.60
2022-10-19T00:14:34.793Z,84.63
2022-10-19T00:17:10.466Z,84.60
2022-10-19T00:19:46.312Z,84.61
2022-10-19T00:22:22.115Z,84.60
2022-10-19T00:25:00.638Z,84.57
2022-10-19T00:27:37.875Z,84.52
2022-10-19T00:30:15.320Z,84.50
2022-10-19T00:32:51.607Z,84.41
2022-10-19T00:35:27.611Z,84.29
2022-10-19T00:38:03.726Z,84.18
2022-10-19T00:40:44.827Z,84.21
2022-10-19T00:43:24.439Z,84.18
2022-10-19T00:46:00.127Z,84.25
2022-10-19T00:48:37.395Z,84.28
2022-10-19T00:51:13.986Z,84.34
2022-10-19T00:53:49.946Z,84.37
2022-10-19T00:56:26.233Z,84.42
2022-10-19T00:59:02.943Z,84.35
2022-10-19T01:01:39.534Z,84.20
2022-10-19T01:04:16.496Z,84.27
2022-10-19T01:06:52.731Z,84.32
2022-10-19T01:09:28.520Z,84.37
2022-10-19T01:12:23.091Z,84.48
2022-10-19T01:15:23.112Z,84.57
2022-10-19T01:18:13.544Z,84.55
2022-10-19T01:21:22.810Z,84.65
2022-10-19T01:24:53.136Z,84.70
2022-10-19T01:27:58.941Z,84.68
2022-10-19T01:30:54.027Z,84.55
2022-10-19T01:33:51.578Z,84.47
2022-10-19T01:36:38.435Z,84.66
2022-10-19T01:39:25.113Z,84.82
2022-10-19T01:42:12.895Z,85.01
2022-10-19T01:44:59.870Z,85.05
2022-10-19T01:47:44.148Z,85.03
2022-10-19T01:50:28.568Z,84.79
2022-10-19T01:53:06.950Z,84.72
2022-10-19T01:55:48.864Z,84.79
2022-10-19T01:58:32.637Z,85.02
2022-10-19T02:01:14.944Z,84.74
2022-10-19T02:03:52.671Z,84.73
2022-10-19T02:06:28.712Z,84.82
2022-10-19T02:09:04.681Z,84.87
2022-10-19T02:11:44.169Z,84.90
2022-10-19T02:14:29.841Z,84.86
2022-10-19T02:17:09.453Z,85.01
2022-10-19T02:19:45.874Z,84.74
2022-10-19T02:22:22.118Z,84.47
2022-10-19T02:24:58.008Z,84.92
2022-10-19T02:27:34.056Z,85.11
2022-10-19T02:30:14.078Z,85.29
2022-10-19T02:32:50.686Z,85.49
2022-10-19T02:35:26.505Z,85.71
2022-10-19T02:38:05.936Z,85.71
2022-10-19T02:40:55.551Z,85.76
2022-10-19T02:43:36.222Z,85.76
2022-10-19T02:46:21.730Z,86.02
2022-10-19T02:49:00.104Z,86.07
2022-10-19T02:51:56.933Z,86.24
2022-10-19T02:54:33.247Z,86.06
2022-10-19T02:57:18.736Z,85.91
2022-10-19T02:59:54.812Z,86.15
2022-10-19T03:02:31.034Z,86.34
2022-10-19T03:05:07.827Z,86.54
2022-10-19T03:07:43.552Z,86.52
2022-10-19T03:10:19.322Z,86.54
2022-10-19T03:12:55.123Z,86.67
2022-10-19T03:15:30.980Z,86.70
2022-10-19T03:18:07.023Z,86.71
2022-10-19T03:20:42.886Z,86.47
2022-10-19T03:23:18.857Z,86.47
2022-10-19T03:25:54.484Z,86.48
2022-10-19T03:28:30.494Z,86.44
2022-10-19T03:31:06.880Z,86.41
2022-10-19T03:33:42.568Z,86.19
2022-10-19T03:36:29.835Z,86.08
2022-10-19T03:39:09.845Z,86.25
2022-10-19T03:41:46.409Z,86.39
2022-10-19T03:44:22.215Z,86.50
2022-10-19T03:46:58.006Z,86.55
2022-10-19T03:49:35.647Z,86.66
2022-10-19T03:52:14.252Z,86.82
2022-10-19T03:54:52.303Z,86.83
2022-10-19T03:57:28.112Z,86.98
2022-10-19T04:00:04.141Z,87.13
2022-10-19T04:02:47.979Z,87.25
2022-10-19T04:05:23.755Z,87.40
2022-10-19T04:07:59.471Z,87.55
2022-10-19T04:10:36.561Z,87.76
2022-10-19T04:13:12.305Z,87.88
2022-10-19T04:15:48.207Z,88.05
2022-10-19T04:18:24.199Z,88.13
2022-10-19T04:21:06.085Z,88.28
2022-10-19T04:23:40.388Z,88.36
2022-10-19T04:26:16.581Z,88.19
2022-10-19T04:28:52.582Z,88.45
2022-10-19T04:31:29.619Z,88.49
2022-10-19T04:34:05.884Z,88.66
2022-10-19T04:36:42.225Z,88.93
2022-10-19T04:39:18.100Z,89.00
2022-10-19T04:41:53.777Z,88.93
2022-10-19T04:44:29.531Z,88.93
2022-10-19T04:47:05.284Z,89.05
2022-10-19T04:49:40.929Z,89.09
2022-10-19T04:52:16.642Z,89.09
2022-10-19T04:54:52.899Z,89.08
2022-10-19T04:57:28.660Z,89.09
2022-10-19T05:00:05.376Z,89.12
2022-10-19T05:02:45.830Z,89.10
2022-10-19T05:05:21.875Z,88.99
2022-10-19T05:07:58.455Z,88.91
2022-10-19T05:10:35.240Z,88.89
2022-10-19T05:13:12.277Z,88.87
2022-10-19T05:15:58.280Z,88.84
2022-10-19T05:18:34.830Z,88.81
2022-10-19T05:21:14.927Z,88.78
2022-10-19T05:23:54.463Z,88.74
2022-10-19T05:26:31.545Z,88.69
2022-10-19T05:29:07.430Z,88.63
2022-10-19T05:31:46.619Z,88.58
2022-10-19T05:34:22.863Z,88.44
2022-10-19T05:36:59.250Z,88.28
2022-10-19T05:39:35.185Z,88.04
2022-10-19T05:42:10.854Z,87.85
2022-10-19T05:44:46.802Z,87.67
2022-10-19T05:47:23.633Z,87.55
2022-10-19T05:50:00.965Z,87.51
2022-10-19T05:52:36.845Z,87.51
2022-10-19T05:55:14.394Z,87.42
2022-10-19T05:57:50.254Z,87.23
2022-10-19T06:00:26.435Z,87.10
2022-10-19T06:03:02.211Z,86.88
2022-10-19T06:05:40.240Z,86.44
2022-10-19T06:08:16.200Z,85.90
2022-10-19T06:10:53.328Z,85.21
2022-10-19T06:13:30.842Z,84.56
2022-10-19T06:16:08.079Z,83.98
2022-10-19T06:18:44.787Z,83.50
2022-10-19T06:21:23.389Z,83.19
2022-10-19T06:24:02.483Z,82.83
2022-10-19T06:26:39.069Z,82.57
2022-10-19T06:29:15.334Z,82.28
2022-10-19T06:31:52.295Z,82.06
2022-10-19T06:34:28.399Z,81.81
2022-10-19T06:37:04.298Z,81.49
2022-10-19T06:39:40.447Z,81.27
2022-10-19T06:42:16.498Z,81.02
2022-10-19T06:44:52.270Z,80.93
2022-10-19T06:47:33.422Z,80.60
2022-10-19T06:50:11.541Z,80.75
2022-10-19T06:52:47.582Z,79.56
2022-10-19T06:55:23.657Z,76.80
2022-10-19T06:58:01.832Z,72.88
2022-10-19T07:00:38.034Z,70.26
2022-10-19T07:03:13.971Z,66.34
2022-10-19T07:05:57.657Z,64.04
2022-10-19T07:08:35.848Z,62.87
2022-10-19T07:11:16.583Z,61.67
2022-10-19T07:13:53.310Z,59.65
2022-10-19T07:16:29.208Z,57.16
2022-10-19T07:19:06.068Z,56.07
2022-10-19T07:21:43.796Z,54.75
2022-10-19T07:24:19.815Z,55.38
2022-10-19T07:26:55.614Z,55.73
2022-10-19T07:29:31.500Z,58.15
2022-10-19T07:32:07.813Z,58.46
2022-10-19T07:34:43.585Z,58.90
2022-10-19T07:37:19.233Z,59.66
2022-10-19T07:39:54.969Z,60.21
2022-10-19T07:42:32.576Z,61.33
2022-10-19T07:45:10.102Z,62.29
2022-10-19T07:47:45.828Z,63.00
2022-10-19T07:50:23.210Z,64.19
2022-10-19T07:52:59.767Z,65.45
2022-10-19T07:55:36.542Z,66.37
2022-10-19T07:58:12.407Z,67.01
2022-10-19T08:00:48.265Z,67.43
2022-10-19T08:06:22.546Z,68.29
2022-10-19T08:08:59.310Z,68.57
2022-10-19T08:11:40.150Z,68.83
2022-10-19T08:14:15.972Z,69.26
2022-10-19T08:16:52.131Z,69.50
2022-10-19T08:19:28.404Z,69.65
2022-10-19T08:22:04.316Z,69.84
2022-10-19T08:24:40.273Z,70.04
2022-10-19T08:27:16.168Z,70.34
2022-10-19T08:29:52.604Z,70.27
2022-10-19T08:32:28.439Z,70.20
2022-10-19T08:35:08.507Z,70.10
2022-10-19T08:37:46.842Z,69.43
2022-10-19T08:40:29.015Z,69.09
2022-10-19T08:43:14.730Z,69.06
2022-10-19T08:45:58.365Z,69.02
2022-10-19T08:48:39.406Z,68.69
2022-10-19T08:51:16.335Z,68.95
2022-10-19T08:54:01.609Z,68.99
2022-10-19T08:56:51.085Z,68.87
2022-10-19T08:59:43.954Z,68.48
2022-10-19T09:02:42.766Z,67.91
2022-10-19T09:05:31.807Z,67.82
2022-10-19T09:08:14.160Z,67.75
2022-10-19T09:10:57.463Z,67.59
2022-10-19T09:14:00.477Z,67.55
2022-10-19T09:16:39.134Z,67.63
2022-10-19T09:19:29.296Z,67.31
2022-10-19T09:22:16.479Z,67.29
2022-10-19T09:24:57.166Z,67.17
2022-10-19T09:27:40.376Z,66.88
2022-10-19T09:30:24.947Z,66.22
2022-10-19T09:33:05.814Z,65.82
2022-10-19T09:35:47.905Z,65.34
2022-10-19T09:38:31.583Z,64.99
2022-10-19T09:41:21.362Z,64.20
2022-10-19T09:43:59.070Z,63.60
2022-10-19T09:46:52.406Z,63.01
2022-10-19T09:49:47.067Z,62.43
2022-10-19T09:52:38.179Z,61.87
2022-10-19T09:55:35.423Z,60.32
2022-10-19T09:58:27.026Z,59.07
2022-10-19T10:01:06.303Z,58.44
2022-10-19T10:03:43.678Z,57.74
2022-10-19T10:06:22.474Z,57.61
2022-10-19T10:09:00.838Z,58.19
2022-10-19T10:11:44.615Z,58.38
2022-10-19T10:14:28.709Z,58.29
2022-10-19T10:17:15.564Z,57.90
2022-10-19T10:20:21.683Z,57.86
2022-10-19T10:23:06.055Z,57.92
2022-10-19T10:25:51.433Z,57.63
2022-10-19T10:28:30.101Z,57.48
2022-10-19T10:31:10.442Z,56.83
2022-10-19T10:36:36.896Z,55.82
2022-10-19T10:39:19.059Z,55.96
2022-10-19T10:41:56.878Z,56.14
2022-10-19T10:44:36.892Z,56.27
2022-10-19T10:47:20.567Z,56.52
2022-10-19T10:50:03.991Z,56.78
2022-10-19T10:53:01.023Z,56.50
2022-10-19T10:55:37.470Z,56.73
2022-10-19T10:58:29.614Z,56.90
2022-10-19T11:01:24.949Z,57.03
2022-10-19T11:04:09.759Z,56.91
2022-10-19T11:06:54.097Z,57.18
2022-10-19T11:09:37.703Z,57.38
2022-10-19T11:12:20.310Z,57.32
2022-10-19T11:15:13.113Z,57.67
2022-10-19T11:18:14.302Z,57.63
2022-10-19T11:21:03.348Z,57.65
2022-10-19T11:24:07.143Z,57.81
2022-10-19T11:27:07.782Z,57.57
2022-10-19T11:30:13.274Z,56.75
2022-10-19T11:33:05.375Z,56.64
2022-10-19T11:35:53.161Z,56.45
2022-10-19T11:38:54.764Z,56.97
2022-10-19T11:41:46.105Z,56.87
2022-10-19T11:44:47.994Z,56.83
2022-10-19T11:47:51.657Z,57.13
2022-10-19T11:50:54.224Z,57.26
2022-10-19T11:53:52.983Z,57.28
2022-10-19T11:57:01.767Z,57.21
2022-10-19T12:00:13.999Z,57.09
2022-10-19T12:03:24.905Z,57.05
2022-10-19T12:06:24.831Z,57.20
2022-10-19T12:09:23.395Z,57.19
2022-10-19T12:12:19.205Z,57.30
2022-10-19T12:15:04.373Z,57.41
2022-10-19T12:17:47.565Z,57.65
2022-10-19T12:20:33.338Z,57.92
2022-10-19T12:23:35.798Z,58.01
2022-10-19T12:26:16.307Z,57.94
2022-10-19T12:28:59.747Z,58.26
2022-10-19T12:31:36.803Z,58.38
2022-10-19T12:34:31.876Z,58.52
2022-10-19T12:37:20.346Z,58.51
2022-10-19T12:40:05.891Z,58.61
2022-10-19T12:42:55.079Z,58.48
2022-10-19T12:45:37.688Z,58.21
2022-10-19T12:48:26.121Z,58.13
2022-10-19T12:51:16.081Z,58.25
2022-10-19T12:54:09.496Z,58.25
2022-10-19T12:56:56.609Z,58.34
2022-10-19T12:59:37.549Z,58.40
2022-10-19T13:05:33.060Z,58.87
2022-10-19T13:08:25.351Z,59.11
2022-10-19T13:11:15.699Z,59.16
2022-10-19T13:14:03.849Z,59.31
2022-10-19T13:17:11.570Z,59.35
2022-10-19T13:19:47.947Z,59.49
2022-10-19T13:22:33.599Z,59.54
2022-10-19T13:25:31.613Z,59.70
2022-10-19T13:28:52.980Z,59.75
2022-10-19T13:31:34.354Z,60.03
2022-10-19T13:34:18.193Z,60.25
2022-10-19T13:37:13.491Z,60.44
2022-10-19T13:39:50.366Z,60.61
2022-10-19T13:42:31.147Z,60.77
2022-10-19T13:45:21.648Z,60.90
2022-10-19T13:48:07.778Z,60.98
2022-10-19T13:50:58.610Z,61.21
2022-10-19T13:53:49.483Z,61.40
2022-10-19T13:57:07.530Z,61.57
2022-10-19T14:00:15.072Z,61.71
2022-10-19T14:03:27.335Z,62.06
2022-10-19T14:06:28.645Z,62.14
2022-10-19T14:10:09.427Z,62.18
2022-10-19T14:12:47.948Z,62.84
2022-10-19T14:15:32.824Z,63.23
2022-10-19T14:18:27.907Z,63.40
2022-10-19T14:21:07.434Z,63.08
2022-10-19T14:23:44.188Z,63.07
2022-10-19T14:26:25.954Z,63.23
2022-10-19T14:29:03.237Z,63.37
2022-10-19T14:31:41.316Z,62.99
2022-10-19T14:34:18.131Z,63.20
2022-10-19T14:36:56.229Z,62.87
2022-10-19T14:39:36.950Z,63.06
2022-10-19T14:42:14.974Z,62.99
2022-10-19T14:44:51.025Z,62.97
2022-10-19T14:47:30.524Z,63.22
2022-10-19T14:50:12.337Z,63.24
2022-10-19T14:52:47.147Z,63.44
2022-10-19T14:55:25.454Z,63.29
2022-10-19T14:58:01.836Z,63.58
2022-10-19T15:00:40.614Z,63.57
2022-10-19T15:03:27.182Z,63.75
2022-10-19T15:06:09.038Z,63.85
2022-10-19T15:08:48.710Z,63.99
2022-10-19T15:11:34.474Z,63.98
2022-10-19T15:14:22.022Z,64.31
2022-10-19T15:17:01.447Z,64.36
2022-10-19T15:19:46.127Z,64.92
2022-10-19T15:22:39.345Z,64.76
2022-10-19T15:25:37.183Z,65.09
2022-10-19T15:28:40.706Z,65.35
2022-10-19T15:31:26.333Z,65.90
2022-10-19T15:34:05.515Z,66.06
2022-10-19T15:36:58.070Z,66.45
2022-10-19T15:39:41.172Z,66.50
2022-10-19T15:42:42.907Z,66.79
2022-10-19T15:45:38.603Z,67.08
2022-10-19T15:48:51.202Z,67.40
2022-10-19T15:51:53.360Z,67.62
2022-10-19T15:54:29.827Z,67.82
2022-10-19T15:57:23.436Z,68.26
2022-10-19T16:00:02.404Z,68.05
2022-10-19T16:02:40.994Z,68.46
2022-10-19T16:05:18.370Z,68.71
2022-10-19T16:07:55.072Z,68.92
2022-10-19T16:10:31.952Z,69.19
2022-10-19T16:13:07.724Z,69.22
2022-10-19T16:15:44.618Z,69.22
2022-10-19T16:18:21.949Z,69.64
2022-10-19T16:20:57.951Z,69.79
2022-10-19T16:23:39.423Z,69.89
2022-10-19T16:26:20.511Z,69.77
2022-10-19T16:28:56.892Z,69.71
2022-10-19T16:31:34.399Z,69.66
2022-10-19T16:34:10.149Z,69.81
2022-10-19T16:36:46.374Z,70.02
2022-10-19T16:39:22.429Z,69.96
2022-10-19T16:41:58.252Z,70.03
2022-10-19T16:44:34.449Z,69.97
2022-10-19T16:47:10.704Z,70.02
2022-10-19T16:49:46.718Z,69.86
2022-10-19T16:52:22.438Z,70.13
2022-10-19T16:54:58.691Z,70.51
2022-10-19T16:57:34.953Z,70.74
2022-10-19T17:00:14.538Z,70.71
2022-10-19T17:02:50.647Z,70.69
2022-10-19T17:05:27.012Z,71.03
2022-10-19T17:08:05.361Z,70.96
2022-10-19T17:10:41.281Z,71.18
2022-10-19T17:13:17.345Z,71.99
2022-10-19T17:15:53.266Z,72.23
2022-10-19T17:18:29.343Z,72.55
2022-10-19T17:21:12.870Z,73.39
2022-10-19T17:23:52.091Z,74.30
2022-10-19T17:26:35.119Z,74.74
2022-10-19T17:29:11.528Z,75.19
2022-10-19T17:31:48.187Z,75.50
2022-10-19T17:34:23.967Z,76.05
2022-10-19T17:37:00.204Z,76.53
2022-10-19T17:39:36.431Z,76.88
2022-10-19T17:42:12.293Z,76.97
2022-10-19T17:44:48.205Z,77.10
2022-10-19T17:47:24.123Z,76.69
2022-10-19T17:50:02.314Z,76.72
2022-10-19T17:52:38.188Z,76.88
2022-10-19T17:55:14.845Z,76.77
2022-10-19T17:57:51.964Z,76.54
2022-10-19T18:00:28.105Z,76.96
2022-10-19T18:03:04.118Z,77.09
2022-10-19T18:05:40.089Z,77.21
2022-10-19T18:08:16.002Z,77.18
2022-10-19T18:10:57.483Z,77.70
2022-10-19T18:13:34.844Z,77.82
2022-10-19T18:16:15.496Z,77.98
2022-10-19T18:18:55.063Z,78.03
2022-10-19T18:21:34.954Z,78.02
2022-10-19T18:24:16.837Z,78.35
2022-10-19T18:26:52.144Z,78.41
2022-10-19T18:29:29.881Z,77.68
2022-10-19T18:34:46.658Z,78.38
2022-10-19T18:37:22.803Z,78.49
2022-10-19T18:40:00.809Z,78.52
2022-10-19T18:42:37.315Z,78.74
2022-10-19T18:45:15.466Z,78.79
2022-10-19T18:47:51.467Z,79.02
2022-10-19T18:50:27.773Z,78.67
2022-10-19T18:53:03.725Z,79.54
2022-10-19T18:55:42.664Z,79.85
2022-10-19T18:58:18.854Z,79.60
2022-10-19T19:01:07.139Z,79.91
2022-10-19T19:03:49.671Z,80.07
2022-10-19T19:06:29.508Z,80.33
2022-10-19T19:09:13.818Z,80.51
2022-10-19T19:11:57.736Z,80.68
2022-10-19T19:14:35.279Z,80.80
2022-10-19T19:17:12.704Z,80.92
2022-10-19T19:19:49.487Z,81.07
2022-10-19T19:22:30.125Z,81.24
2022-10-19T19:25:13.048Z,81.40
2022-10-19T19:27:53.597Z,81.53
2022-10-19T19:30:35.892Z,81.71
2022-10-19T19:33:20.171Z,81.87
2022-10-19T19:35:56.445Z,82.08
2022-10-19T19:38:33.352Z,82.31
2022-10-19T19:41:14.313Z,82.47
2022-10-19T19:43:52.412Z,82.61
2022-10-19T19:46:29.421Z,82.74
2022-10-19T19:49:07.980Z,82.86
2022-10-19T19:51:44.033Z,82.96
2022-10-19T19:54:21.393Z,83.07
2022-10-19T19:56:58.112Z,83.14
2022-10-19T19:59:34.197Z,83.16
2022-10-19T20:02:10.228Z,83.23
2022-10-19T20:04:46.288Z,83.28
2022-10-19T20:07:22.343Z,83.35
2022-10-19T20:09:58.711Z,83.39
2022-10-19T20:12:34.639Z,83.33
2022-10-19T20:15:18.954Z,83.32
2022-10-19T20:17:55.070Z,83.34
2022-10-19T20:20:30.849Z,83.32
2022-10-19T20:23:07.157Z,83.27
2022-10-19T20:25:44.328Z,83.21
2022-10-19T20:28:20.301Z,83.04
2022-10-19T20:31:07.240Z,83.04
2022-10-19T20:33:47.373Z,82.89
2022-10-19T20:36:26.871Z,82.52
2022-10-19T20:39:03.447Z,81.95
2022-10-19T20:41:39.322Z,81.47
2022-10-19T20:44:15.104Z,81.17
2022-10-19T20:46:53.354Z,81.20
2022-10-19T20:49:29.480Z,81.04
2022-10-19T20:52:05.553Z,81.00
2022-10-19T20:54:41.517Z,81.39
2022-10-19T20:57:17.545Z,81.55
2022-10-19T20:59:54.494Z,81.19
2022-10-19T21:02:30.333Z,81.15
2022-10-19T21:05:07.095Z,81.51
2022-10-19T21:07:43.559Z,81.81
2022-10-19T21:10:19.599Z,82.06
2022-10-19T21:12:55.646Z,82.41
2022-10-19T21:15:31.507Z,82.46
2022-10-19T21:18:07.252Z,82.47
2022-10-19T21:20:43.107Z,82.43
2022-10-19T21:23:19.165Z,82.47
2022-10-19T21:26:01.080Z,82.57
2022-10-19T21:28:35.390Z,82.58
2022-10-19T21:31:13.022Z,82.58
2022-10-19T21:33:49.554Z,82.60
2022-10-19T21:36:26.760Z,82.55
2022-10-19T21:39:02.785Z,82.61
2022-10-19T21:41:38.996Z,82.71
2022-10-19T21:44:15.455Z,82.77
2022-10-19T21:46:52.863Z,82.83
2022-10-19T21:49:28.664Z,82.88
2022-10-19T21:52:04.518Z,82.88
2022-10-19T21:54:40.477Z,82.90
2022-10-19T21:57:16.309Z,82.94
2022-10-19T21:59:52.225Z,83.02
2022-10-19T22:02:31.122Z,83.20
2022-10-19T22:05:07.520Z,83.32
2022-10-19T22:07:43.226Z,83.28
2022-10-19T22:10:19.384Z,83.28
2022-10-19T22:12:56.319Z,83.47
2022-10-19T22:15:32.012Z,83.74
2022-10-19T22:18:08.174Z,84.05
2022-10-19T22:20:44.410Z,84.25
2022-10-19T22:23:20.101Z,84.27
2022-10-19T22:25:55.892Z,84.27
2022-10-19T22:28:32.003Z,84.21
2022-10-19T22:31:08.062Z,84.21
2022-10-19T22:33:44.453Z,84.17
2022-10-19T22:36:20.595Z,84.16
2022-10-19T22:38:56.348Z,83.96
2022-10-19T22:41:32.455Z,83.91
2022-10-19T22:44:08.946Z,83.67
2022-10-19T22:46:45.607Z,83.43
2022-10-19T22:49:21.794Z,83.26
2022-10-19T22:51:57.965Z,83.11
2022-10-19T22:54:34.232Z,82.95
2022-10-19T22:57:11.868Z,82.83
2022-10-19T22:59:47.971Z,82.68
2022-10-19T23:02:24.970Z,82.55
2022-10-19T23:05:01.037Z,82.35
2022-10-19T23:07:38.401Z,82.24
2022-10-19T23:10:15.816Z,82.20
2022-10-19T23:12:54.912Z,82.21
2022-10-19T23:15:31.103Z,82.24
2022-10-19T23:18:07.243Z,82.15
2022-10-19T23:20:43.327Z,82.13
2022-10-19T23:23:19.432Z,82.07
2022-10-19T23:26:07.247Z,82.09
2022-10-19T23:28:46.278Z,82.13
2022-10-19T23:31:26.356Z,82.18
2022-10-19T23:34:02.488Z,82.23
2022-10-19T23:36:38.637Z,82.24
2022-10-19T23:39:14.872Z,82.20
2022-10-19T23:41:50.608Z,82.24
2022-10-19T23:44:26.544Z,82.27
2022-10-19T23:47:02.240Z,82.31
2022-10-19T23:49:37.963Z,82.41
2022-10-19T23:52:13.656Z,82.57
2022-10-19T23:54:49.408Z,82.60
2022-10-19T23:57:25.102Z,82.69
